Leesburg, South Carolina
Current Conditions -  °F | °C
As of 5:53 PM on Thursday 20 Nov 2014 (Local Time) from KCUB Reporting Station
Clear Clear  
Wind Chill: 56°   Ceiling: Unl
Heat Index: 56°   Visibility: 10mi
Dew Point: 32°   Wind: 3mph
Humidity: 40%   Direction: 240°WSW
Pressure: 30.14"   Gusts: NA
Location:  33.9488°N, 80.9462°W
Report Text: KCUB 202253Z AUTO 24003KT 10SM CLR 13/00 A3014 RMK AO2 SLP205 T01330000
Loading
Personal Weather Stations






























Interactive Weather Map New forecast layout! Learn more

10-Day Weather Forecast

Advertisements
Track Severe Weather on mobile